createdAt,value
2023-03-20T00:02:00.473Z,99121.88
2023-03-20T00:04:29.697Z,99119.34
2023-03-20T00:06:57.303Z,99113.31
2023-03-20T00:09:26.662Z,99125.44
2023-03-20T00:11:55.577Z,99126.34
2023-03-20T00:14:24.962Z,99116.75
2023-03-20T00:16:52.624Z,99117.44
2023-03-20T00:19:26.006Z,99121.06
2023-03-20T00:21:55.005Z,99114.22
2023-03-20T00:24:23.836Z,99111.66
2023-03-20T00:26:52.445Z,99122.91
2023-03-20T00:29:31.050Z,99120.28
2023-03-20T00:31:59.343Z,99132.41
2023-03-20T00:34:29.565Z,99129.75
2023-03-20T00:36:58.109Z,99126.19
2023-03-20T00:39:26.280Z,99116.63
2023-03-20T00:42:01.829Z,99120.97
2023-03-20T00:44:41.912Z,99123.69
2023-03-20T00:47:20.735Z,99124.59
2023-03-20T00:49:50.800Z,99123.47
2023-03-20T00:52:19.435Z,99116.59
2023-03-20T00:54:46.998Z,99114.91
2023-03-20T00:57:17.966Z,99120.22
2023-03-20T01:00:09.366Z,99121.91
2023-03-20T01:02:37.376Z,99117.59
2023-03-20T01:05:05.950Z,99115.03
2023-03-20T01:07:33.960Z,99108.06
2023-03-20T01:10:04.426Z,99115.91
2023-03-20T01:12:32.324Z,99116.75
2023-03-20T01:15:01.156Z,99116.81
2023-03-20T01:17:29.986Z,99116.78
2023-03-20T01:19:57.384Z,99113.34
2023-03-20T01:22:24.843Z,99110.72
2023-03-20T01:24:52.556Z,99112.50
2023-03-20T01:27:20.996Z,99100.34
2023-03-20T01:29:48.455Z,99101.19
2023-03-20T01:32:18.481Z,99095.16
2023-03-20T01:34:47.604Z,99095.16
2023-03-20T01:37:18.441Z,99102.06
2023-03-20T01:39:46.216Z,99096.84
2023-03-20T01:42:17.214Z,99090.78
2023-03-20T01:44:45.679Z,99102.00
2023-03-20T01:47:23.738Z,99102.88
2023-03-20T01:50:26.296Z,99101.94
2023-03-20T01:53:02.468Z,99102.00
2023-03-20T01:55:30.433Z,99097.66
2023-03-20T01:58:01.923Z,99099.31
2023-03-20T02:00:30.623Z,99105.41
2023-03-20T02:02:58.884Z,99085.44
2023-03-20T02:05:28.544Z,99089.75
2023-03-20T02:08:23.731Z,99084.63
2023-03-20T02:10:51.588Z,99082.81
2023-03-20T02:13:21.868Z,99084.56
2023-03-20T02:16:14.279Z,99086.25
2023-03-20T02:18:47.460Z,99087.13
2023-03-20T02:21:21.964Z,99082.00
2023-03-20T02:24:15.427Z,99077.59
2023-03-20T02:26:53.500Z,99076.63
2023-03-20T02:29:46.474Z,99085.34
2023-03-20T02:32:35.337Z,99077.41
2023-03-20T02:35:17.608Z,99078.37
2023-03-20T02:37:54.354Z,99075.88
2023-03-20T02:40:38.362Z,99073.25
2023-03-20T02:43:44.336Z,99064.63
2023-03-20T02:46:17.958Z,99059.34
2023-03-20T02:48:58.427Z,99059.22
2023-03-20T02:51:35.614Z,99057.59
2023-03-20T02:54:29.126Z,99062.72
2023-03-20T02:57:06.024Z,99067.09
2023-03-20T03:00:18.965Z,99055.78
2023-03-20T03:03:13.580Z,99070.44
2023-03-20T03:05:45.530Z,99070.38
2023-03-20T03:08:16.701Z,99067.78
2023-03-20T03:10:49.093Z,99074.56
2023-03-20T03:13:19.950Z,99075.47
2023-03-20T03:15:51.127Z,99080.44
2023-03-20T03:18:23.283Z,99093.13
2023-03-20T03:20:56.457Z,99090.62
2023-03-20T03:23:44.756Z,99087.84
2023-03-20T03:26:25.353Z,99091.28
2023-03-20T03:28:58.276Z,99097.22
2023-03-20T03:31:28.460Z,99092.78
2023-03-20T03:33:59.201Z,99090.12
2023-03-20T03:36:36.113Z,99092.91
2023-03-20T03:39:13.123Z,99093.81
2023-03-20T03:41:42.818Z,99086.03
2023-03-20T03:44:29.187Z,99092.59
2023-03-20T03:47:10.386Z,99093.53
2023-03-20T03:49:44.463Z,99094.44
2023-03-20T03:52:15.590Z,99100.69
2023-03-20T03:54:46.844Z,99102.28
2023-03-20T03:57:21.981Z,99111.75
2023-03-20T03:59:51.172Z,99110.72
2023-03-20T04:02:19.737Z,99103.81
2023-03-20T04:05:07.824Z,99105.56
2023-03-20T04:07:36.560Z,99096.97
2023-03-20T04:10:04.549Z,99104.78
2023-03-20T04:12:39.016Z,99106.31
2023-03-20T04:15:09.789Z,99112.41
2023-03-20T04:17:37.294Z,99113.00
2023-03-20T04:20:05.642Z,99109.78
2023-03-20T04:22:35.081Z,99117.53
2023-03-20T04:25:06.838Z,99117.56
2023-03-20T04:27:34.938Z,99123.72
2023-03-20T04:30:03.904Z,99126.72
2023-03-20T04:32:32.026Z,99126.13
2023-03-20T04:34:59.946Z,99123.53
2023-03-20T04:37:27.701Z,99120.06
2023-03-20T04:39:56.022Z,99119.81
2023-03-20T04:42:23.777Z,99116.56
2023-03-20T04:44:51.831Z,99119.69
2023-03-20T04:47:19.316Z,99119.38
2023-03-20T04:49:47.303Z,99114.88
2023-03-20T04:52:15.314Z,99108.84
2023-03-20T04:54:42.971Z,99114.94
2023-03-20T04:57:10.677Z,99117.47
2023-03-20T04:59:39.132Z,99118.22
2023-03-20T05:02:07.006Z,99115.91
2023-03-20T05:04:34.944Z,99125.19
2023-03-20T05:07:03.207Z,99121.19
2023-03-20T05:09:32.174Z,99122.38
2023-03-20T05:12:01.407Z,99127.22
2023-03-20T05:14:30.975Z,99126.59
2023-03-20T05:16:59.939Z,99128.53
2023-03-20T05:19:28.069Z,99137.63
2023-03-20T05:21:56.361Z,99144.59
2023-03-20T05:24:25.568Z,99143.59
2023-03-20T05:26:53.416Z,99147.44
2023-03-20T05:29:22.584Z,99147.84
2023-03-20T05:31:56.368Z,99149.22
2023-03-20T05:34:25.651Z,99142.44
2023-03-20T05:36:54.300Z,99141.91
2023-03-20T05:39:23.451Z,99133.34
2023-03-20T05:41:51.229Z,99147.37
2023-03-20T05:44:21.162Z,99146.47
2023-03-20T05:46:48.838Z,99153.50
2023-03-20T05:49:16.461Z,99153.03
2023-03-20T05:51:46.917Z,99150.78
2023-03-20T05:54:15.195Z,99155.09
2023-03-20T05:56:43.537Z,99157.94
2023-03-20T05:59:11.996Z,99163.22
2023-03-20T06:01:39.524Z,99157.13
2023-03-20T06:04:08.539Z,99166.72
2023-03-20T06:06:38.069Z,99162.22
2023-03-20T06:09:05.725Z,99168.22
2023-03-20T06:11:36.253Z,99170.06
2023-03-20T06:14:05.368Z,99172.88
2023-03-20T06:16:33.655Z,99171.41
2023-03-20T06:19:01.242Z,99175.91
2023-03-20T06:21:29.282Z,99171.59
2023-03-20T06:23:58.162Z,99174.31
2023-03-20T06:26:26.020Z,99172.69
2023-03-20T06:28:54.042Z,99176.25
2023-03-20T06:31:21.980Z,99167.66
2023-03-20T06:33:49.997Z,99172.63
2023-03-20T06:36:17.460Z,99183.31
2023-03-20T06:38:45.959Z,99180.47
2023-03-20T06:41:27.814Z,99178.94
2023-03-20T06:44:04.568Z,99184.97
2023-03-20T06:46:35.666Z,99186.59
2023-03-20T06:49:03.950Z,99184.22
2023-03-20T06:51:31.653Z,99179.13
2023-03-20T06:53:59.171Z,99177.22
2023-03-20T06:56:26.962Z,99184.38
2023-03-20T06:58:54.533Z,99182.53
2023-03-20T07:01:22.228Z,99186.22
2023-03-20T07:03:52.692Z,99179.50
2023-03-20T07:06:21.585Z,99184.75
2023-03-20T07:08:52.853Z,99182.25
2023-03-20T07:11:21.116Z,99178.84
2023-03-20T07:13:49.992Z,99186.50
2023-03-20T07:16:18.068Z,99190.16
2023-03-20T07:18:46.756Z,99184.34
2023-03-20T07:21:19.327Z,99198.31
2023-03-20T07:23:47.899Z,99183.75
2023-03-20T07:26:15.663Z,99183.69
2023-03-20T07:28:43.090Z,99189.78
2023-03-20T07:31:24.736Z,99195.78
2023-03-20T07:33:52.628Z,99186.34
2023-03-20T07:36:20.330Z,99192.44
2023-03-20T07:38:47.850Z,99188.16
2023-03-20T07:41:15.433Z,99184.72
2023-03-20T07:43:44.771Z,99189.88
2023-03-20T07:46:14.124Z,99189.78
2023-03-20T07:48:41.617Z,99192.56
2023-03-20T07:51:09.345Z,99196.09
2023-03-20T07:53:37.092Z,99191.75
2023-03-20T07:56:05.001Z,99190.00
2023-03-20T07:58:32.696Z,99188.25
2023-03-20T08:01:03.065Z,99194.34
2023-03-20T08:03:31.786Z,99198.69
2023-03-20T08:05:59.364Z,99196.94
2023-03-20T08:08:27.130Z,99195.19
2023-03-20T08:10:54.894Z,99203.84
2023-03-20T08:13:22.307Z,99196.91
2023-03-20T08:15:49.748Z,99202.06
2023-03-20T08:18:17.559Z,99202.91
2023-03-20T08:20:44.966Z,99201.06
2023-03-20T08:23:12.463Z,99198.56
2023-03-20T08:25:40.518Z,99198.50
2023-03-20T08:28:07.941Z,99201.06
2023-03-20T08:30:35.669Z,99202.72
2023-03-20T08:33:03.427Z,99205.09
2023-03-20T08:35:33.462Z,99206.81
2023-03-20T08:38:01.411Z,99205.97
2023-03-20T08:40:29.249Z,99205.28
2023-03-20T08:42:56.741Z,99205.31
2023-03-20T08:45:27.265Z,99206.06
2023-03-20T08:47:55.100Z,99207.63
2023-03-20T08:50:22.799Z,99207.72
2023-03-20T08:52:50.260Z,99205.06
2023-03-20T08:55:18.111Z,99212.12
2023-03-20T08:57:46.729Z,99217.41
2023-03-20T09:00:15.626Z,99211.94
2023-03-20T09:02:43.783Z,99216.97
2023-03-20T09:05:11.334Z,99221.50
2023-03-20T09:07:38.734Z,99230.25
2023-03-20T09:10:07.114Z,99222.31
2023-03-20T09:12:34.609Z,99222.31
2023-03-20T09:15:02.696Z,99226.78
2023-03-20T09:17:31.568Z,99227.66
2023-03-20T09:19:59.001Z,99224.97
2023-03-20T09:22:26.409Z,99228.59
2023-03-20T09:24:54.109Z,99227.47
2023-03-20T09:27:21.703Z,99221.28
2023-03-20T09:29:49.116Z,99231.16
2023-03-20T09:32:16.881Z,99221.25
2023-03-20T09:34:44.347Z,99210.81
2023-03-20T09:37:11.779Z,99226.94
2023-03-20T09:39:39.515Z,99218.03
2023-03-20T09:42:28.217Z,99222.09
2023-03-20T09:45:22.550Z,99216.22
2023-03-20T09:48:11.242Z,99218.50
2023-03-20T09:50:51.655Z,99212.34
2023-03-20T09:54:02.588Z,99211.94
2023-03-20T09:56:31.140Z,99214.56
2023-03-20T09:59:01.190Z,99223.37
2023-03-20T10:01:38.406Z,99223.53
2023-03-20T10:04:11.646Z,99226.84
2023-03-20T10:06:39.137Z,99225.47
2023-03-20T10:09:18.029Z,99211.47
2023-03-20T10:12:23.597Z,99214.13
2023-03-20T10:15:33.112Z,99215.87
2023-03-20T10:18:10.005Z,99214.59
2023-03-20T10:20:55.019Z,99225.16
2023-03-20T10:23:31.584Z,99217.38
2023-03-20T10:26:07.276Z,99211.62
2023-03-20T10:28:50.716Z,99213.63
2023-03-20T10:31:28.511Z,99204.00
2023-03-20T10:34:14.246Z,99201.06
2023-03-20T10:36:56.442Z,99201.41
2023-03-20T10:39:53.092Z,99206.94
2023-03-20T10:42:24.613Z,99198.50
2023-03-20T10:44:58.134Z,99199.09
2023-03-20T10:47:29.186Z,99199.47
2023-03-20T10:50:12.350Z,99197.91
2023-03-20T10:52:41.816Z,99203.56
2023-03-20T10:55:22.600Z,99200.41
2023-03-20T10:57:58.180Z,99190.78
2023-03-20T11:00:27.172Z,99191.69
2023-03-20T11:02:54.874Z,99189.66
2023-03-20T11:05:34.067Z,99193.78
2023-03-20T11:08:22.859Z,99182.25
2023-03-20T11:10:59.072Z,99187.34
2023-03-20T11:13:53.167Z,99171.63
2023-03-20T11:16:26.108Z,99172.75
2023-03-20T11:18:56.729Z,99171.28
2023-03-20T11:21:29.358Z,99175.00
2023-03-20T11:23:57.318Z,99165.53
2023-03-20T11:26:30.862Z,99176.22
2023-03-20T11:28:59.764Z,99174.78
2023-03-20T11:31:41.147Z,99167.97
2023-03-20T11:34:15.406Z,99164.88
2023-03-20T11:37:10.519Z,99166.78
2023-03-20T11:39:40.122Z,99164.50
2023-03-20T11:42:24.694Z,99166.25
2023-03-20T11:45:13.870Z,99162.84
2023-03-20T11:47:41.768Z,99155.69
2023-03-20T11:50:42.398Z,99162.69
2023-03-20T11:53:37.032Z,99158.81
2023-03-20T11:56:13.566Z,99167.72
2023-03-20T11:58:59.124Z,99165.91
2023-03-20T12:01:27.902Z,99163.37
2023-03-20T12:03:55.790Z,99159.75
2023-03-20T12:06:27.256Z,99164.50
2023-03-20T12:09:00.502Z,99159.88
2023-03-20T12:12:05.230Z,99169.22
2023-03-20T12:14:47.513Z,99158.50
2023-03-20T12:17:31.400Z,99161.22
2023-03-20T12:20:04.418Z,99152.03
2023-03-20T12:22:58.681Z,99149.75
2023-03-20T12:25:55.611Z,99145.31
2023-03-20T12:28:42.149Z,99148.34
2023-03-20T12:31:28.299Z,99148.37
2023-03-20T12:34:23.296Z,99140.47
2023-03-20T12:36:53.092Z,99144.06
2023-03-20T12:39:25.914Z,99133.84
2023-03-20T12:42:09.520Z,99154.09
2023-03-20T12:44:51.469Z,99137.41
2023-03-20T12:47:21.878Z,99142.28
2023-03-20T12:49:52.257Z,99145.25
2023-03-20T12:52:43.412Z,99131.19
2023-03-20T12:55:35.462Z,99131.28
2023-03-20T12:58:26.157Z,99125.13
2023-03-20T13:01:07.388Z,99127.38
2023-03-20T13:04:08.914Z,99123.06
2023-03-20T13:06:39.623Z,99126.00
2023-03-20T13:09:28.431Z,99122.22
2023-03-20T13:12:01.826Z,99114.28
2023-03-20T13:14:48.755Z,99106.38
2023-03-20T13:17:42.329Z,99107.22
2023-03-20T13:20:17.277Z,99103.59
2023-03-20T13:23:22.750Z,99090.88
2023-03-20T13:26:13.965Z,99100.72
2023-03-20T13:29:16.621Z,99097.88
2023-03-20T13:31:53.788Z,99095.88
2023-03-20T13:34:54.202Z,99097.88
2023-03-20T13:37:26.802Z,99089.09
2023-03-20T13:39:54.480Z,99090.62
2023-03-20T13:42:23.423Z,99086.47
2023-03-20T13:44:51.576Z,99090.72
2023-03-20T13:47:24.043Z,99087.97
2023-03-20T13:50:12.811Z,99082.00
2023-03-20T13:52:50.864Z,99088.56
2023-03-20T13:55:32.564Z,99085.59
2023-03-20T13:58:34.526Z,99091.88
2023-03-20T14:01:23.160Z,99082.38
2023-03-20T14:03:52.066Z,99090.28
2023-03-20T14:06:42.197Z,99083.12
2023-03-20T14:09:43.992Z,99085.66
2023-03-20T14:12:12.963Z,99084.59
2023-03-20T14:14:49.065Z,99081.25
2023-03-20T14:17:25.696Z,99084.84
2023-03-20T14:19:53.372Z,99075.62
2023-03-20T14:22:28.159Z,99076.47
2023-03-20T14:25:18.797Z,99075.91
2023-03-20T14:28:01.133Z,99081.75
2023-03-20T14:30:31.857Z,99072.44
2023-03-20T14:33:26.129Z,99075.34
2023-03-20T14:36:17.753Z,99072.09
2023-03-20T14:38:59.361Z,99079.13
2023-03-20T14:41:30.766Z,99082.62
2023-03-20T14:44:24.195Z,99081.81
2023-03-20T14:47:21.503Z,99074.50
2023-03-20T14:49:53.274Z,99073.97
2023-03-20T14:52:30.294Z,99074.47
2023-03-20T14:55:15.119Z,99075.88
2023-03-20T14:57:55.642Z,99076.72
2023-03-20T15:00:30.242Z,99067.03
2023-03-20T15:03:14.078Z,99066.25
2023-03-20T15:05:42.312Z,99071.13
2023-03-20T15:08:25.143Z,99067.84
2023-03-20T15:10:58.364Z,99070.50
2023-03-20T15:13:26.804Z,99057.81
2023-03-20T15:15:59.200Z,99067.34
2023-03-20T15:18:27.634Z,99064.13
2023-03-20T15:20:58.359Z,99070.13
2023-03-20T15:23:26.304Z,99069.22
2023-03-20T15:25:54.051Z,99069.56
2023-03-20T15:28:26.121Z,99069.75
2023-03-20T15:30:57.081Z,99078.03
2023-03-20T15:33:31.804Z,99070.47
2023-03-20T15:36:07.823Z,99061.63
2023-03-20T15:38:35.341Z,99068.28
2023-03-20T15:41:28.233Z,99062.69
2023-03-20T15:44:37.992Z,99062.09
2023-03-20T15:47:20.737Z,99061.16
2023-03-20T15:50:00.718Z,99058.38
2023-03-20T15:52:43.859Z,99057.28
2023-03-20T15:55:20.004Z,99060.78
2023-03-20T15:57:50.354Z,99058.97
2023-03-20T16:00:24.296Z,99058.72
2023-03-20T16:02:52.023Z,99061.03
2023-03-20T16:05:21.323Z,99058.47
2023-03-20T16:07:48.733Z,99061.78
2023-03-20T16:10:21.863Z,99059.47
2023-03-20T16:12:51.086Z,99065.88
2023-03-20T16:15:19.436Z,99071.34
2023-03-20T16:17:48.646Z,99077.59
2023-03-20T16:20:17.067Z,99078.47
2023-03-20T16:22:45.545Z,99081.47
2023-03-20T16:25:15.523Z,99078.31
2023-03-20T16:27:46.158Z,99079.56
2023-03-20T16:30:17.567Z,99089.00
2023-03-20T16:32:47.350Z,99079.19
2023-03-20T16:35:19.293Z,99083.81
2023-03-20T16:37:49.869Z,99083.06
2023-03-20T16:40:33.198Z,99080.78
2023-03-20T16:43:16.503Z,99082.91
2023-03-20T16:45:46.809Z,99083.41
2023-03-20T16:48:21.767Z,99092.41
2023-03-20T16:50:57.017Z,99092.59
2023-03-20T16:53:28.922Z,99094.69
2023-03-20T16:55:59.857Z,99097.19
2023-03-20T16:58:30.080Z,99099.44
2023-03-20T17:01:04.024Z,99100.25
2023-03-20T17:03:39.992Z,99105.56
2023-03-20T17:06:20.806Z,99104.84
2023-03-20T17:09:00.818Z,99101.34
2023-03-20T17:11:34.621Z,99108.41
2023-03-20T17:14:04.340Z,99109.53
2023-03-20T17:16:36.207Z,99109.78
2023-03-20T17:19:14.353Z,99112.28
2023-03-20T17:21:43.014Z,99110.47
2023-03-20T17:24:11.778Z,99114.28
2023-03-20T17:26:41.623Z,99116.97
2023-03-20T17:29:11.886Z,99120.53
2023-03-20T17:31:39.645Z,99115.25
2023-03-20T17:34:07.255Z,99110.03
2023-03-20T17:36:35.414Z,99113.59
2023-03-20T17:39:03.435Z,99113.59
2023-03-20T17:41:31.600Z,99114.56
2023-03-20T17:44:00.565Z,99121.59
2023-03-20T17:46:31.345Z,99128.66
2023-03-20T17:49:06.471Z,99131.31
2023-03-20T17:51:37.504Z,99127.81
2023-03-20T17:54:07.780Z,99134.91
2023-03-20T17:56:36.777Z,99132.41
2023-03-20T17:59:06.719Z,99140.22
2023-03-20T18:01:36.756Z,99141.88
2023-03-20T18:04:04.836Z,99141.91
2023-03-20T18:06:33.984Z,99141.94
2023-03-20T18:09:03.513Z,99144.50
2023-03-20T18:11:33.008Z,99147.25
2023-03-20T18:14:04.127Z,99140.28
2023-03-20T18:16:33.509Z,99140.31
2023-03-20T18:19:03.818Z,99141.22
2023-03-20T18:21:32.528Z,99140.34
2023-03-20T18:24:00.495Z,99143.00
2023-03-20T18:26:28.735Z,99143.00
2023-03-20T18:28:58.250Z,99140.37
2023-03-20T18:31:27.750Z,99147.41
2023-03-20T18:33:56.076Z,99148.22
2023-03-20T18:36:25.425Z,99143.00
2023-03-20T18:38:53.477Z,99144.75
2023-03-20T18:41:23.869Z,99147.37
2023-03-20T18:43:53.717Z,99138.66
2023-03-20T18:46:23.543Z,99150.03
2023-03-20T18:48:53.621Z,99144.81
2023-03-20T18:51:23.759Z,99137.88
2023-03-20T18:53:53.568Z,99143.94
2023-03-20T18:56:27.503Z,99146.56
2023-03-20T18:58:56.572Z,99149.16
2023-03-20T19:01:27.699Z,99152.66
2023-03-20T19:03:56.725Z,99145.72
2023-03-20T19:06:25.924Z,99150.91
2023-03-20T19:08:56.528Z,99153.50
2023-03-20T19:11:25.437Z,99150.06
2023-03-20T19:13:55.820Z,99156.09
2023-03-20T19:16:29.554Z,99148.31
2023-03-20T19:19:01.723Z,99147.44
2023-03-20T19:21:32.776Z,99149.16
2023-03-20T19:24:05.998Z,99149.97
2023-03-20T19:26:38.008Z,99150.00
2023-03-20T19:29:09.923Z,99149.97
2023-03-20T19:31:38.813Z,99150.88
2023-03-20T19:34:16.215Z,99148.13
2023-03-20T19:36:53.931Z,99147.25
2023-03-20T19:39:23.182Z,99154.16
2023-03-20T19:41:53.186Z,99147.22
2023-03-20T19:44:21.779Z,99148.09
2023-03-20T19:46:51.280Z,99151.59
2023-03-20T19:49:30.158Z,99151.66
2023-03-20T19:52:00.851Z,99155.09
2023-03-20T19:54:30.859Z,99152.44
2023-03-20T19:57:00.195Z,99151.56
2023-03-20T19:59:32.742Z,99166.34
2023-03-20T20:02:02.354Z,99155.00
2023-03-20T20:04:31.619Z,99168.03
2023-03-20T20:07:40.618Z,99166.28
2023-03-20T20:09:50.587Z,99166.16
2023-03-20T20:12:19.577Z,99165.28
2023-03-20T20:14:48.629Z,99159.22
2023-03-20T20:17:17.720Z,99157.59
2023-03-20T20:19:46.428Z,99152.31
2023-03-20T20:22:25.277Z,99152.25
2023-03-20T20:24:55.524Z,99156.53
2023-03-20T20:27:25.217Z,99148.69
2023-03-20T20:29:54.630Z,99147.78
2023-03-20T20:32:26.252Z,99147.91
2023-03-20T20:38:30.507Z,99147.78
2023-03-20T20:40:37.166Z,99150.41
2023-03-20T20:43:10.547Z,99144.28
2023-03-20T20:45:39.470Z,99146.13
2023-03-20T20:48:09.102Z,99144.16
2023-03-20T20:50:39.651Z,99139.97
2023-03-20T20:53:09.027Z,99139.91
2023-03-20T20:55:38.765Z,99139.75
2023-03-20T20:58:07.638Z,99140.59
2023-03-20T21:00:49.350Z,99137.00
2023-03-20T21:03:21.263Z,99148.31
2023-03-20T21:05:51.429Z,99134.66
2023-03-20T21:08:19.825Z,99139.84
2023-03-20T21:10:49.138Z,99138.16
2023-03-20T21:13:17.177Z,99140.00
2023-03-20T21:15:46.996Z,99142.56
2023-03-20T21:18:15.253Z,99143.88
2023-03-20T21:20:44.596Z,99140.63
2023-03-20T21:23:12.882Z,99135.34
2023-03-20T21:25:45.443Z,99145.50
2023-03-20T21:28:15.528Z,99146.25
2023-03-20T21:31:00.024Z,99142.06
2023-03-20T21:33:33.039Z,99149.66
2023-03-20T21:36:01.236Z,99157.53
2023-03-20T21:39:01.912Z,99161.91
2023-03-20T21:41:19.057Z,99161.06
2023-03-20T21:43:47.607Z,99156.66
2023-03-20T21:46:54.395Z,99153.22
2023-03-20T21:52:43.986Z,99155.56
2023-03-20T22:01:12.161Z,99165.88
2023-03-20T22:03:10.894Z,99160.06
2023-03-20T22:17:43.559Z,99161.06
2023-03-20T22:20:29.239Z,99156.06
2023-03-20T22:25:56.009Z,99151.75
2023-03-20T22:40:03.267Z,99134.75
2023-03-20T22:42:49.615Z,99136.44
2023-03-20T22:45:01.407Z,99133.03
2023-03-20T22:47:31.035Z,99135.25
2023-03-20T22:50:23.813Z,99130.34
2023-03-20T22:52:55.379Z,99136.56
2023-03-20T22:55:23.821Z,99144.38
2023-03-20T22:58:05.921Z,99127.78
2023-03-20T23:00:34.712Z,99136.59
2023-03-20T23:03:38.118Z,99141.66
2023-03-20T23:05:56.025Z,99138.28
2023-03-20T23:08:24.938Z,99140.09
2023-03-20T23:11:12.438Z,99146.13
2023-03-20T23:13:40.424Z,99136.69
2023-03-20T23:16:08.399Z,99132.25
2023-03-20T23:18:36.682Z,99138.88
2023-03-20T23:21:04.819Z,99144.03
2023-03-20T23:23:32.290Z,99145.81
2023-03-20T23:26:14.710Z,99145.75
2023-03-20T23:28:44.396Z,99141.44
2023-03-20T23:31:24.313Z,99136.41
2023-03-20T23:33:54.346Z,99140.00
2023-03-20T23:36:35.438Z,99136.59
2023-03-20T23:39:09.694Z,99135.00
2023-03-20T23:44:25.341Z,99138.38
2023-03-20T23:46:53.130Z,99131.34
2023-03-20T23:49:20.728Z,99134.13
2023-03-20T23:51:48.505Z,99132.03
2023-03-20T23:54:16.295Z,99135.75
2023-03-20T23:56:43.805Z,99137.53
2023-03-20T23:59:21.106Z,99132.47
